Time;durP1;ratioP1;P1;durP2;ratioP2;P2;SDS_P1;SDS_P2;PMS_P1;PMS_P2;Temp;Humidity;BMP_temperature;BMP_pressure;BME280_temperature;BME280_humidity;BME280_pressure;Samples;Min_cycle;Max_cycle;Signal;HPM_P1;HPM_P2
2023/12/05 00:00:38;;;;;;;10.97;10.27;;;2.70;99.90;;;;;;5060816;28;20200;-64
2023/12/05 00:03:05;;;;;;;11.53;10.73;;;2.70;99.90;;;;;;5065690;28;20198;-66
2023/12/05 00:05:33;;;;;;;11.10;10.20;;;2.70;99.90;;;;;;5042554;28;20301;-65
2023/12/05 00:07:59;;;;;;;12.30;11.30;;;2.70;99.90;;;;;;5065013;28;20191;-65
2023/12/05 00:10:26;;;;;;;11.07;10.33;;;2.70;99.90;;;;;;5067499;28;20677;-64
2023/12/05 00:12:53;;;;;;;11.00;10.30;;;2.70;99.90;;;;;;5074322;28;20671;-66
2023/12/05 00:15:21;;;;;;;11.53;10.73;;;2.70;99.90;;;;;;5044025;28;20269;-65
2023/12/05 00:17:48;;;;;;;11.67;10.87;;;2.70;99.90;;;;;;5067502;28;20478;-64
2023/12/05 00:20:15;;;;;;;11.60;10.80;;;2.70;99.90;;;;;;5049401;28;20202;-66
2023/12/05 00:22:42;;;;;;;11.50;10.73;;;2.80;99.90;;;;;;5072574;28;20226;-65
2023/12/05 00:25:09;;;;;;;11.47;10.67;;;2.70;99.90;;;;;;5070554;28;20187;-68
2023/12/05 00:27:36;;;;;;;11.73;10.83;;;2.80;99.90;;;;;;5045411;28;20209;-68
2023/12/05 00:30:03;;;;;;;11.80;10.97;;;2.80;99.90;;;;;;5071373;28;20223;-67
2023/12/05 00:32:31;;;;;;;11.37;10.60;;;2.80;99.90;;;;;;5055107;28;20209;-67
2023/12/05 00:34:58;;;;;;;12.23;11.23;;;2.80;99.90;;;;;;5056699;28;20191;-67
2023/12/05 00:37:25;;;;;;;11.87;11.07;;;2.80;99.90;;;;;;5069190;28;20687;-68
2023/12/05 00:39:52;;;;;;;11.87;11.07;;;2.80;99.90;;;;;;5053058;28;20187;-68
2023/12/05 00:42:19;;;;;;;12.10;11.27;;;2.80;99.90;;;;;;5059037;28;20194;-67
2023/12/05 00:44:46;;;;;;;11.83;11.03;;;2.80;99.90;;;;;;5068876;28;20200;-68
2023/12/05 00:47:13;;;;;;;12.63;11.70;;;2.80;99.90;;;;;;5074204;28;20312;-70
2023/12/05 00:49:40;;;;;;;13.23;12.10;;;2.80;99.90;;;;;;5077663;28;20236;-70
2023/12/05 00:52:07;;;;;;;13.07;11.97;;;2.80;99.90;;;;;;5089647;28;20298;-70
2023/12/05 00:54:34;;;;;;;13.37;12.27;;;2.80;99.90;;;;;;5066472;28;20263;-70
2023/12/05 00:57:01;;;;;;;13.60;12.43;;;2.80;99.90;;;;;;5055820;28;20218;-69
2023/12/05 00:59:28;;;;;;;12.80;11.70;;;2.70;99.90;;;;;;5084125;28;20198;-70
2023/12/05 01:01:55;;;;;;;11.87;11.00;;;2.70;99.90;;;;;;5072665;28;20693;-68
2023/12/05 01:04:23;;;;;;;13.23;11.97;;;2.70;99.90;;;;;;5075409;28;20203;-68
2023/12/05 01:06:50;;;;;;;13.17;12.10;;;2.70;99.90;;;;;;5073313;28;20191;-67
2023/12/05 01:09:17;;;;;;;12.80;11.70;;;2.70;99.90;;;;;;5071371;28;20250;-67
2023/12/05 01:11:44;;;;;;;12.27;11.27;;;2.70;99.90;;;;;;5051703;28;20413;-67
2023/12/05 01:14:11;;;;;;;12.90;12.00;;;2.80;99.90;;;;;;5049665;28;20548;-67
2023/12/05 01:16:43;;;;;;;12.60;11.47;;;2.80;99.90;;;;;;5070113;28;20782;-67
2023/12/05 01:19:10;;;;;;;11.60;10.80;;;2.90;99.90;;;;;;5054068;28;20286;-67
2023/12/05 01:21:37;;;;;;;13.10;12.00;;;2.90;99.90;;;;;;5077321;28;20195;-66
2023/12/05 01:24:05;;;;;;;12.93;11.97;;;2.90;99.90;;;;;;5037943;28;20285;-67
2023/12/05 01:26:32;;;;;;;11.87;11.07;;;2.90;99.90;;;;;;5068348;28;20737;-67
2023/12/05 01:28:59;;;;;;;12.37;11.47;;;2.90;99.90;;;;;;5073508;28;20190;-68
2023/12/05 01:31:26;;;;;;;13.03;12.03;;;2.90;99.90;;;;;;5054839;28;20206;-68
2023/12/05 01:33:53;;;;;;;13.57;12.47;;;2.90;99.90;;;;;;5056812;28;20226;-67
2023/12/05 01:36:20;;;;;;;12.87;11.97;;;2.90;99.90;;;;;;5059660;28;20187;-64
2023/12/05 01:38:48;;;;;;;12.80;11.90;;;3.00;99.90;;;;;;5068739;28;20590;-63
2023/12/05 01:41:15;;;;;;;13.33;12.33;;;2.90;99.90;;;;;;5051559;28;20260;-64
2023/12/05 01:43:42;;;;;;;13.73;12.63;;;3.00;99.90;;;;;;5044407;28;20253;-65
2023/12/05 01:46:10;;;;;;;12.90;12.00;;;3.00;99.90;;;;;;5050990;28;20201;-65
2023/12/05 01:48:39;;;;;;;12.57;11.67;;;3.00;99.90;;;;;;5049409;28;20226;-65
2023/12/05 01:51:09;;;;;;;13.27;12.27;;;3.00;99.90;;;;;;5051362;28;20198;-65
2023/12/05 01:53:40;;;;;;;12.53;11.73;;;3.00;99.90;;;;;;5069288;28;20587;-65
2023/12/05 01:56:10;;;;;;;13.53;12.43;;;3.00;99.90;;;;;;5069789;28;20187;-67
2023/12/05 01:58:37;;;;;;;12.93;11.93;;;3.10;99.90;;;;;;5050505;28;20268;-66
2023/12/05 02:01:05;;;;;;;13.27;12.27;;;3.10;99.90;;;;;;5055750;28;20203;-66
2023/12/05 02:03:33;;;;;;;13.37;12.37;;;3.10;99.90;;;;;;5051990;28;20703;-66
2023/12/05 02:06:00;;;;;;;13.20;12.30;;;3.10;99.90;;;;;;5067566;28;20266;-67
2023/12/05 02:08:28;;;;;;;13.63;12.63;;;3.10;99.90;;;;;;5077051;28;20271;-66
2023/12/05 02:10:55;;;;;;;13.17;12.17;;;3.10;99.90;;;;;;5072325;28;20601;-66
2023/12/05 02:13:22;;;;;;;14.00;12.83;;;3.10;99.90;;;;;;5057404;28;20263;-66
2023/12/05 02:16:03;;;;;;;13.80;12.80;;;3.00;99.90;;;;;;5067515;28;20270;-66
2023/12/05 02:18:39;;;;;;;13.90;12.83;;;3.00;99.90;;;;;;5072434;28;20726;-65
2023/12/05 02:21:17;;;;;;;14.33;12.97;;;3.00;99.90;;;;;;5052122;28;20265;-67
2023/12/05 02:24:19;;;;;;;13.90;12.90;;;3.00;99.90;;;;;;5052173;28;20190;-67
2023/12/05 02:26:54;;;;;;;13.40;12.40;;;3.00;99.90;;;;;;5077041;28;20189;-66
2023/12/05 02:29:21;;;;;;;13.00;12.10;;;3.00;99.90;;;;;;5065736;28;20233;-66
2023/12/05 02:31:48;;;;;;;13.67;12.57;;;3.00;99.90;;;;;;5072400;28;20220;-66
2023/12/05 02:34:15;;;;;;;14.13;13.03;;;3.00;99.90;;;;;;5058117;28;20690;-64
2023/12/05 02:37:10;;;;;;;13.40;12.50;;;3.00;99.90;;;;;;5037935;28;20194;-66
2023/12/05 02:39:45;;;;;;;13.37;12.37;;;3.10;99.90;;;;;;5080343;28;20253;-66
2023/12/05 02:42:14;;;;;;;12.70;11.80;;;3.10;99.90;;;;;;5048014;28;20222;-67
2023/12/05 02:44:47;;;;;;;13.30;12.27;;;3.00;99.90;;;;;;5055629;28;20195;-66
2023/12/05 02:47:17;;;;;;;13.10;12.20;;;3.10;99.90;;;;;;5070863;28;20190;-68
2023/12/05 02:49:44;;;;;;;13.47;12.47;;;3.00;99.90;;;;;;5076554;28;20225;-69
2023/12/05 02:52:11;;;;;;;12.67;11.87;;;3.10;99.90;;;;;;5054026;28;20211;-68
2023/12/05 02:54:40;;;;;;;13.47;12.47;;;3.10;99.90;;;;;;5054021;28;20222;-69
2023/12/05 02:57:07;;;;;;;13.57;12.57;;;3.00;99.90;;;;;;5077422;28;20689;-69
2023/12/05 02:59:34;;;;;;;12.73;11.80;;;3.00;99.90;;;;;;5078217;28;20217;-69
2023/12/05 03:06:01;;;;;;;13.50;12.30;;;3.00;99.90;;;;;;5068768;28;20644;-70
2023/12/05 03:08:28;;;;;;;13.20;12.20;;;3.00;99.90;;;;;;5053991;28;20271;-70
2023/12/05 03:10:55;;;;;;;12.70;11.80;;;3.00;99.90;;;;;;5045373;28;20261;-70
2023/12/05 03:13:32;;;;;;;11.93;11.13;;;3.00;99.90;;;;;;5061270;28;20222;-70
2023/12/05 03:15:59;;;;;;;12.97;11.87;;;3.00;99.90;;;;;;5061200;28;20531;-70
2023/12/05 03:18:26;;;;;;;11.93;11.00;;;3.00;99.90;;;;;;5073827;28;20215;-71
2023/12/05 03:20:53;;;;;;;13.70;12.50;;;3.10;99.90;;;;;;5050576;28;20295;-70
2023/12/05 03:23:20;;;;;;;13.40;12.10;;;3.00;99.90;;;;;;5052366;28;20206;-70
2023/12/05 03:25:47;;;;;;;12.63;11.63;;;3.10;99.90;;;;;;5072713;28;20195;-70
2023/12/05 03:28:14;;;;;;;11.60;10.80;;;3.10;99.90;;;;;;5083575;28;20243;-70
2023/12/05 03:30:41;;;;;;;11.87;10.77;;;3.10;99.90;;;;;;5067876;28;20282;-70
2023/12/05 03:33:08;;;;;;;12.07;11.07;;;3.10;99.90;;;;;;5068821;28;20187;-71
2023/12/05 03:35:35;;;;;;;10.87;10.17;;;3.10;99.90;;;;;;5064311;28;20195;-71
2023/12/05 03:38:02;;;;;;;10.87;10.17;;;3.00;99.90;;;;;;5053884;28;20179;-70
2023/12/05 03:40:29;;;;;;;10.90;10.20;;;3.10;99.90;;;;;;5053550;28;20187;-71
2023/12/05 03:42:56;;;;;;;11.23;10.37;;;3.10;99.90;;;;;;5061865;28;20617;-68
2023/12/05 03:45:23;;;;;;;10.57;9.93;;;3.10;99.90;;;;;;5071979;28;20214;-69
2023/12/05 03:47:50;;;;;;;12.50;11.37;;;3.10;99.90;;;;;;5066140;28;20204;-68
2023/12/05 03:50:17;;;;;;;11.33;10.53;;;3.10;99.90;;;;;;5060776;28;20202;-68
2023/12/05 03:52:43;;;;;;;10.60;10.00;;;3.10;99.90;;;;;;5048113;28;20286;-68
2023/12/05 03:55:10;;;;;;;10.23;9.63;;;3.10;99.90;;;;;;5068186;28;20218;-68
2023/12/05 03:57:37;;;;;;;11.00;10.30;;;3.10;99.90;;;;;;5063600;28;20223;-69
2023/12/05 04:00:06;;;;;;;10.97;10.30;;;3.10;99.90;;;;;;5062374;28;20207;-68
2023/12/05 04:02:37;;;;;;;11.50;10.70;;;3.10;99.90;;;;;;5067397;28;20281;-70
2023/12/05 04:05:04;;;;;;;11.83;10.93;;;3.10;99.90;;;;;;5069961;28;20251;-69
2023/12/05 04:07:31;;;;;;;10.97;10.23;;;3.10;99.90;;;;;;5072033;28;20187;-69
2023/12/05 04:09:58;;;;;;;10.70;9.97;;;3.20;99.90;;;;;;5063422;28;20231;-68
2023/12/05 04:12:25;;;;;;;11.67;10.87;;;3.10;99.90;;;;;;5066436;28;20339;-68
2023/12/05 04:14:52;;;;;;;11.37;10.57;;;3.20;99.90;;;;;;5061116;28;20512;-68
2023/12/05 04:17:19;;;;;;;10.50;9.80;;;3.20;99.90;;;;;;5043302;28;20233;-66
2023/12/05 04:19:46;;;;;;;11.37;10.47;;;3.20;99.90;;;;;;5077662;28;20201;-66
2023/12/05 04:22:13;;;;;;;11.13;10.40;;;3.20;99.90;;;;;;5068267;28;20207;-66
2023/12/05 04:24:40;;;;;;;11.13;10.37;;;3.20;99.90;;;;;;5051527;28;20256;-66
2023/12/05 04:27:07;;;;;;;11.73;10.90;;;3.20;99.90;;;;;;5087888;28;20198;-67
2023/12/05 04:29:37;;;;;;;11.40;10.70;;;3.20;99.90;;;;;;5073589;28;20289;-67
2023/12/05 04:32:04;;;;;;;11.23;10.53;;;3.10;99.90;;;;;;5074390;28;20210;-67
2023/12/05 04:34:31;;;;;;;11.70;10.90;;;3.10;99.90;;;;;;5050914;28;20340;-67
2023/12/05 04:36:58;;;;;;;11.73;10.83;;;3.10;99.90;;;;;;5061664;28;20261;-67
2023/12/05 04:39:25;;;;;;;12.00;11.10;;;3.10;99.90;;;;;;5058111;28;20226;-67
2023/12/05 04:41:52;;;;;;;10.80;10.10;;;3.10;99.90;;;;;;5074349;28;20244;-67
2023/12/05 04:44:18;;;;;;;11.27;10.47;;;3.20;99.90;;;;;;5075571;28;20214;-67
2023/12/05 04:46:45;;;;;;;10.97;10.37;;;3.20;99.90;;;;;;5080265;28;20246;-67
2023/12/05 04:49:12;;;;;;;11.53;10.73;;;3.20;99.90;;;;;;5068749;28;20286;-67
2023/12/05 04:51:39;;;;;;;11.00;10.30;;;3.20;99.90;;;;;;5074094;28;20210;-67
2023/12/05 04:54:07;;;;;;;11.17;10.37;;;3.20;99.90;;;;;;5059514;28;20187;-67
2023/12/05 04:56:34;;;;;;;11.10;10.40;;;3.20;99.90;;;;;;5079183;28;20265;-69
2023/12/05 04:59:02;;;;;;;11.97;11.07;;;3.20;99.90;;;;;;5074405;28;20641;-68
2023/12/05 05:01:29;;;;;;;10.80;10.10;;;3.30;99.90;;;;;;5077805;28;20187;-67
2023/12/05 05:03:55;;;;;;;12.17;11.37;;;3.30;99.90;;;;;;5073003;28;20213;-65
2023/12/05 05:06:28;;;;;;;11.50;10.77;;;3.30;99.90;;;;;;5074329;28;20266;-64
2023/12/05 05:08:56;;;;;;;11.37;10.67;;;3.30;99.90;;;;;;5087626;28;20658;-67
2023/12/05 05:11:23;;;;;;;11.60;10.73;;;3.30;99.90;;;;;;5055987;28;20234;-67
2023/12/05 05:13:50;;;;;;;12.03;11.13;;;3.40;99.90;;;;;;5073243;28;20194;-67
2023/12/05 05:16:24;;;;;;;11.67;10.97;;;3.40;99.90;;;;;;5067675;28;20812;-67
2023/12/05 05:18:54;;;;;;;11.37;10.67;;;3.40;99.90;;;;;;5075926;28;20626;-67
2023/12/05 05:21:21;;;;;;;12.40;11.50;;;3.40;99.90;;;;;;5071157;28;20227;-66
2023/12/05 05:23:48;;;;;;;12.50;11.40;;;3.40;99.90;;;;;;5069307;28;20230;-67
2023/12/05 05:26:15;;;;;;;11.70;10.90;;;3.40;99.90;;;;;;5065717;28;20853;-69
2023/12/05 05:28:42;;;;;;;11.73;11.03;;;3.50;99.90;;;;;;5052121;28;20230;-68
2023/12/05 05:31:09;;;;;;;11.77;10.97;;;3.40;99.90;;;;;;5066429;28;20639;-69
2023/12/05 05:33:36;;;;;;;11.80;11.00;;;3.40;99.90;;;;;;5083834;28;20878;-69
2023/12/05 05:36:04;;;;;;;11.93;11.23;;;3.50;99.90;;;;;;5076763;28;20191;-70
2023/12/05 05:38:31;;;;;;;12.03;11.23;;;3.50;99.90;;;;;;5076446;28;21005;-69
2023/12/05 05:41:06;;;;;;;11.93;11.20;;;3.50;99.90;;;;;;5054490;28;20654;-68
2023/12/05 05:43:34;;;;;;;12.57;11.67;;;3.50;99.90;;;;;;5056569;28;20197;-68
2023/12/05 05:46:01;;;;;;;12.43;11.40;;;3.50;99.90;;;;;;5066031;28;20191;-72
2023/12/05 05:48:28;;;;;;;12.60;11.80;;;3.50;99.90;;;;;;5078296;28;20643;-68
2023/12/05 05:50:55;;;;;;;12.23;11.23;;;3.50;99.90;;;;;;5057842;28;20808;-69
2023/12/05 05:53:23;;;;;;;12.67;11.80;;;3.50;99.90;;;;;;5076174;28;20247;-67
2023/12/05 05:55:50;;;;;;;12.60;11.70;;;3.60;99.90;;;;;;5045770;28;20179;-67
2023/12/05 05:58:17;;;;;;;12.00;11.20;;;3.50;99.90;;;;;;5078228;28;20211;-67
2023/12/05 06:00:44;;;;;;;12.97;11.80;;;3.60;99.90;;;;;;5077290;28;20282;-68
2023/12/05 06:03:11;;;;;;;12.47;11.67;;;3.60;99.90;;;;;;5082520;28;20226;-68
2023/12/05 06:05:38;;;;;;;12.77;11.87;;;3.60;99.90;;;;;;5085220;28;20590;-68
2023/12/05 06:08:05;;;;;;;12.27;11.50;;;3.60;99.90;;;;;;5068927;28;20292;-67
2023/12/05 06:10:34;;;;;;;11.40;10.70;;;3.50;99.90;;;;;;5072304;28;20301;-68
2023/12/05 06:13:02;;;;;;;12.40;11.60;;;3.50;99.90;;;;;;5069833;28;20195;-67
2023/12/05 06:15:29;;;;;;;12.37;11.47;;;3.60;99.90;;;;;;5065431;28;20221;-68
2023/12/05 06:17:57;;;;;;;11.30;10.60;;;3.60;99.90;;;;;;5033600;28;20555;-69
2023/12/05 06:20:24;;;;;;;12.03;11.23;;;3.50;99.90;;;;;;5048182;28;20199;-68
2023/12/05 06:22:51;;;;;;;11.97;11.17;;;3.60;99.90;;;;;;5027875;28;20291;-69
2023/12/05 06:25:18;;;;;;;11.87;11.07;;;3.60;99.90;;;;;;5068525;28;20191;-68
2023/12/05 06:27:46;;;;;;;11.80;10.90;;;3.60;99.90;;;;;;5033290;28;20260;-67
2023/12/05 06:30:13;;;;;;;12.17;11.27;;;3.60;99.90;;;;;;5050669;28;20234;-68
2023/12/05 06:32:50;;;;;;;11.70;10.93;;;3.60;99.90;;;;;;5044289;28;20196;-68
2023/12/05 06:35:18;;;;;;;13.60;12.30;;;3.70;99.90;;;;;;5059423;28;20191;-68
2023/12/05 06:37:44;;;;;;;12.37;11.47;;;3.70;99.90;;;;;;5068332;28;20569;-66
2023/12/05 06:40:12;;;;;;;12.37;11.47;;;3.70;99.90;;;;;;5051192;28;20218;-68
2023/12/05 06:42:40;;;;;;;12.30;11.50;;;3.60;99.90;;;;;;5049585;28;20264;-68
2023/12/05 06:45:08;;;;;;;12.00;11.07;;;3.70;99.90;;;;;;5068973;28;20199;-68
2023/12/05 06:47:35;;;;;;;12.40;11.60;;;3.70;99.90;;;;;;5033940;28;20551;-68
2023/12/05 06:50:05;;;;;;;13.00;12.10;;;3.70;99.90;;;;;;5059637;28;20208;-68
2023/12/05 06:52:32;;;;;;;12.37;11.57;;;3.70;99.90;;;;;;5069092;28;20243;-68
2023/12/05 06:54:59;;;;;;;12.70;11.80;;;3.70;99.90;;;;;;5068619;28;20250;-68
2023/12/05 06:57:26;;;;;;;12.90;12.00;;;3.70;99.90;;;;;;5064751;28;20218;-67
2023/12/05 06:59:53;;;;;;;12.63;11.73;;;3.70;99.90;;;;;;5049824;28;20252;-67
2023/12/05 07:02:20;;;;;;;13.10;12.10;;;3.80;99.90;;;;;;5032709;28;20207;-68
2023/12/05 07:04:47;;;;;;;12.73;11.50;;;3.80;99.90;;;;;;5068024;28;20225;-67
2023/12/05 07:07:14;;;;;;;12.33;11.23;;;3.80;99.90;;;;;;5069799;28;20290;-68
2023/12/05 07:09:41;;;;;;;11.33;10.53;;;3.80;99.90;;;;;;5050382;28;20195;-67
2023/12/05 07:12:08;;;;;;;11.73;10.60;;;3.80;99.90;;;;;;5049754;28;20230;-67
2023/12/05 07:14:35;;;;;;;11.80;10.90;;;3.80;99.90;;;;;;5048675;28;20296;-68
2023/12/05 07:17:02;;;;;;;11.43;10.53;;;3.90;99.90;;;;;;5055361;28;20191;-67
2023/12/05 07:19:29;;;;;;;12.73;11.63;;;3.80;99.90;;;;;;5046600;28;20679;-67
2023/12/05 07:21:57;;;;;;;14.57;12.77;;;3.90;99.90;;;;;;5066643;28;20194;-67
2023/12/05 07:24:24;;;;;;;22.73;15.10;;;3.90;99.90;;;;;;5055356;28;20632;-68
2023/12/05 07:26:51;;;;;;;13.13;11.93;;;4.00;99.90;;;;;;5077216;28;20562;-67
2023/12/05 07:29:18;;;;;;;21.17;14.97;;;4.10;99.90;;;;;;5053207;28;20186;-67
2023/12/05 07:31:46;;;;;;;17.47;14.83;;;4.10;99.90;;;;;;5073747;28;20211;-68
2023/12/05 07:34:13;;;;;;;25.33;16.90;;;4.20;99.90;;;;;;5040760;28;20234;-67
2023/12/05 07:36:40;;;;;;;15.03;13.43;;;4.20;99.90;;;;;;5033599;28;20290;-67
2023/12/05 07:39:09;;;;;;;24.27;15.10;;;4.20;99.90;;;;;;5077385;28;20554;-67
2023/12/05 07:41:38;;;;;;;15.57;12.50;;;4.20;99.90;;;;;;5062216;28;20270;-66
2023/12/05 07:44:08;;;;;;;24.13;16.23;;;4.30;99.90;;;;;;5029037;28;20210;-66
2023/12/05 07:46:35;;;;;;;16.57;13.30;;;4.30;99.90;;;;;;5066726;28;20225;-68
2023/12/05 07:49:02;;;;;;;21.33;13.83;;;4.30;99.90;;;;;;5073615;28;20191;-67
2023/12/05 07:51:29;;;;;;;14.00;12.63;;;4.40;99.90;;;;;;5059170;28;20211;-67
2023/12/05 07:53:57;;;;;;;12.87;11.77;;;4.40;99.90;;;;;;5060187;28;20218;-67
2023/12/05 07:56:24;;;;;;;19.60;15.53;;;4.40;99.90;;;;;;5013186;28;20246;-66
2023/12/05 07:58:51;;;;;;;15.30;13.63;;;4.50;99.90;;;;;;5071228;28;20202;-67
2023/12/05 08:01:18;;;;;;;14.00;12.53;;;4.50;99.90;;;;;;5074362;28;20248;-67
2023/12/05 08:03:45;;;;;;;21.83;16.03;;;4.60;99.90;;;;;;5058498;28;20191;-67
2023/12/05 08:06:13;;;;;;;16.53;13.47;;;4.60;99.90;;;;;;5077386;28;20194;-67
2023/12/05 08:08:40;;;;;;;24.10;17.57;;;4.60;99.90;;;;;;5058507;28;20205;-66
2023/12/05 08:11:09;;;;;;;14.93;13.47;;;4.70;99.90;;;;;;5079949;28;20686;-66
2023/12/05 08:13:37;;;;;;;20.57;14.63;;;4.70;99.90;;;;;;5044745;28;20293;-66
2023/12/05 08:16:04;;;;;;;25.20;16.43;;;4.80;99.90;;;;;;5049894;28;20286;-66
2023/12/05 08:18:31;;;;;;;12.67;11.47;;;4.80;99.90;;;;;;5079976;28;20919;-66
2023/12/05 08:20:58;;;;;;;21.97;14.00;;;4.90;99.90;;;;;;5069663;28;20271;-67
2023/12/05 08:23:25;;;;;;;14.80;13.27;;;4.90;99.90;;;;;;5057509;28;20270;-66
2023/12/05 08:25:52;;;;;;;17.20;15.40;;;5.00;99.90;;;;;;5061912;28;20253;-66
2023/12/05 08:28:19;;;;;;;14.83;13.43;;;5.00;99.90;;;;;;5032956;28;20733;-66
2023/12/05 08:30:46;;;;;;;15.47;13.93;;;5.00;99.90;;;;;;5043680;28;20225;-65
2023/12/05 08:33:14;;;;;;;14.80;13.30;;;5.00;99.90;;;;;;5032330;28;20851;-66
2023/12/05 08:35:45;;;;;;;14.23;13.03;;;5.00;99.90;;;;;;5064260;28;20203;-66
2023/12/05 08:38:12;;;;;;;14.90;12.97;;;5.00;99.90;;;;;;5047610;28;20646;-66
2023/12/05 08:40:39;;;;;;;14.20;13.00;;;5.10;99.90;;;;;;5048554;28;20195;-66
2023/12/05 08:43:06;;;;;;;13.47;12.30;;;5.10;99.90;;;;;;5048053;28;20302;-66
2023/12/05 08:45:33;;;;;;;14.70;13.30;;;5.10;99.90;;;;;;5048398;28;20256;-66
2023/12/05 08:48:00;;;;;;;14.07;12.87;;;5.20;99.90;;;;;;5046930;28;20198;-66
2023/12/05 08:50:27;;;;;;;13.87;12.73;;;5.20;99.90;;;;;;5048597;28;20226;-66
2023/12/05 08:52:55;;;;;;;14.63;13.27;;;5.20;99.90;;;;;;5066710;28;20210;-66
2023/12/05 08:55:21;;;;;;;12.20;11.40;;;5.20;99.90;;;;;;5055951;28;20271;-66
2023/12/05 08:57:48;;;;;;;14.70;13.17;;;5.30;99.90;;;;;;5061724;28;20207;-67
2023/12/05 09:00:16;;;;;;;14.50;13.00;;;5.30;99.90;;;;;;5047989;28;20200;-67
2023/12/05 09:02:43;;;;;;;14.97;13.57;;;5.30;99.90;;;;;;5063682;28;20263;-67
2023/12/05 09:05:10;;;;;;;13.60;12.53;;;5.40;99.90;;;;;;5076443;28;20642;-67
2023/12/05 09:07:38;;;;;;;14.73;13.53;;;5.40;99.90;;;;;;5058413;28;20234;-68
2023/12/05 09:10:05;;;;;;;14.10;13.00;;;5.40;99.90;;;;;;5076096;28;21038;-67
2023/12/05 09:12:32;;;;;;;14.73;13.50;;;5.40;99.90;;;;;;5072354;28;20299;-68
2023/12/05 09:14:59;;;;;;;13.70;12.70;;;5.50;99.90;;;;;;5050624;28;20216;-68
2023/12/05 09:17:28;;;;;;;14.97;13.53;;;5.50;99.90;;;;;;5059315;28;20194;-67
2023/12/05 09:19:55;;;;;;;14.30;13.10;;;5.60;99.90;;;;;;5055531;28;20195;-68
2023/12/05 09:22:22;;;;;;;14.73;13.53;;;5.70;99.90;;;;;;5062725;28;20293;-68
2023/12/05 09:24:49;;;;;;;14.67;13.50;;;5.70;99.90;;;;;;5072161;28;20186;-68
2023/12/05 09:27:16;;;;;;;15.53;14.23;;;5.80;99.90;;;;;;5083662;28;20213;-68
2023/12/05 09:29:43;;;;;;;14.83;13.73;;;6.00;99.90;;;;;;5043467;28;20207;-68
2023/12/05 09:32:17;;;;;;;16.60;15.30;;;6.20;99.90;;;;;;5043747;28;20670;-68
2023/12/05 09:34:45;;;;;;;15.60;14.47;;;6.50;99.90;;;;;;5083510;28;20203;-68
2023/12/05 09:37:14;;;;;;;17.37;15.97;;;6.70;99.90;;;;;;5049638;28;20200;-67
2023/12/05 09:39:41;;;;;;;18.00;16.40;;;7.00;99.90;;;;;;5044896;28;20575;-67
2023/12/05 09:42:13;;;;;;;18.67;17.17;;;7.40;99.90;;;;;;5072571;28;20205;-67
2023/12/05 09:44:47;;;;;;;18.77;17.27;;;7.50;99.90;;;;;;5086164;28;20220;-67
2023/12/05 09:47:20;;;;;;;19.50;17.87;;;7.50;99.90;;;;;;5052549;28;20716;-67
2023/12/05 09:49:48;;;;;;;19.00;17.70;;;7.70;99.90;;;;;;5077620;28;20203;-66
2023/12/05 09:52:15;;;;;;;20.07;18.57;;;9.40;99.90;;;;;;5066324;28;20755;-66
2023/12/05 09:54:43;;;;;;;21.20;19.50;;;9.90;99.90;;;;;;5075282;28;20190;-66
2023/12/05 09:57:14;;;;;;;21.73;19.90;;;9.10;99.90;;;;;;5059024;28;20233;-66
2023/12/05 09:59:41;;;;;;;20.30;18.87;;;8.50;99.90;;;;;;5073490;28;20186;-66
2023/12/05 10:02:09;;;;;;;18.70;17.50;;;8.40;99.90;;;;;;5074717;28;20199;-66
2023/12/05 10:04:44;;;;;;;18.43;17.23;;;8.40;99.90;;;;;;5053871;28;20281;-66
2023/12/05 10:07:12;;;;;;;18.07;16.80;;;8.30;99.90;;;;;;5077776;28;20527;-66
2023/12/05 10:09:43;;;;;;;17.90;16.70;;;8.30;99.90;;;;;;5046716;28;20674;-66
2023/12/05 10:12:11;;;;;;;17.63;16.37;;;8.30;99.90;;;;;;5075188;28;20233;-66
2023/12/05 10:14:39;;;;;;;16.63;15.63;;;8.10;99.90;;;;;;5060895;28;20634;-66
2023/12/05 10:17:07;;;;;;;16.43;15.43;;;8.00;99.90;;;;;;5075194;28;20226;-66
2023/12/05 10:19:35;;;;;;;15.77;14.67;;;7.80;99.90;;;;;;5068180;28;20285;-66
2023/12/05 10:22:02;;;;;;;15.30;14.40;;;7.80;99.90;;;;;;5051243;28;20655;-65
2023/12/05 10:24:42;;;;;;;15.57;14.57;;;7.70;99.90;;;;;;5043431;28;20202;-67
2023/12/05 10:27:10;;;;;;;14.83;13.97;;;7.70;99.90;;;;;;5069351;28;20198;-67
2023/12/05 10:29:42;;;;;;;14.27;13.47;;;7.80;99.90;;;;;;5074460;28;20198;-67
2023/12/05 10:32:11;;;;;;;14.00;13.20;;;7.90;99.90;;;;;;5053172;28;20738;-67
2023/12/05 10:34:52;;;;;;;14.43;13.63;;;7.90;99.90;;;;;;5048202;28;20537;-68
2023/12/05 10:37:27;;;;;;;14.33;13.43;;;8.00;99.90;;;;;;5049086;28;20183;-69
2023/12/05 10:39:56;;;;;;;14.73;13.73;;;8.30;99.90;;;;;;5051147;28;20183;-68
2023/12/05 10:42:29;;;;;;;14.73;13.77;;;8.30;99.90;;;;;;5050883;28;20241;-66
2023/12/05 10:44:56;;;;;;;14.90;13.90;;;8.10;99.90;;;;;;5051567;28;20277;-67
2023/12/05 10:47:26;;;;;;;13.90;13.00;;;8.20;99.90;;;;;;5050644;28;20195;-68
2023/12/05 10:49:55;;;;;;;14.10;13.30;;;8.10;99.90;;;;;;5038155;28;20306;-69
2023/12/05 10:52:22;;;;;;;13.70;12.70;;;8.20;99.90;;;;;;5050651;28;20288;-65
2023/12/05 10:54:57;;;;;;;13.70;12.80;;;8.20;99.90;;;;;;5047026;28;20199;-65
2023/12/05 10:57:33;;;;;;;13.60;12.70;;;8.10;99.90;;;;;;5050149;28;20210;-61
2023/12/05 11:00:03;;;;;;;13.90;12.60;;;8.10;99.90;;;;;;5067583;28;20581;-63
2023/12/05 11:02:31;;;;;;;13.00;12.20;;;8.00;99.90;;;;;;5034350;28;20765;-62
2023/12/05 11:05:03;;;;;;;13.50;12.70;;;8.20;99.90;;;;;;5061867;28;20195;-66
2023/12/05 11:07:30;;;;;;;12.90;12.10;;;8.30;99.90;;;;;;5060104;28;20210;-66
2023/12/05 11:09:57;;;;;;;13.43;12.63;;;8.60;99.90;;;;;;5075033;28;20205;-66
2023/12/05 11:12:24;;;;;;;13.17;12.40;;;8.60;99.90;;;;;;5057244;28;20292;-66
2023/12/05 11:14:54;;;;;;;13.20;12.50;;;8.40;99.90;;;;;;5060769;28;20203;-66
2023/12/05 11:17:28;;;;;;;12.80;12.10;;;8.70;99.90;;;;;;5072238;28;20186;-67
2023/12/05 11:20:38;;;;;;;12.70;12.00;;;9.10;99.90;;;;;;5073983;28;20238;-68
2023/12/05 11:23:08;;;;;;;12.80;12.10;;;9.50;99.90;;;;;;5063244;28;20256;-68
2023/12/05 11:25:44;;;;;;;13.13;12.43;;;9.40;99.90;;;;;;5055612;28;20326;-68
2023/12/05 11:28:53;;;;;;;12.97;12.27;;;9.00;99.90;;;;;;5071984;28;20655;-68
2023/12/05 11:31:36;;;;;;;13.20;12.40;;;8.80;99.90;;;;;;5069142;28;20305;-68
2023/12/05 11:34:12;;;;;;;13.27;12.57;;;8.70;99.90;;;;;;5049422;28;20801;-68
2023/12/05 11:36:49;;;;;;;13.10;12.40;;;8.60;99.90;;;;;;5061218;28;20284;-68
2023/12/05 11:39:17;;;;;;;13.43;12.73;;;8.50;99.90;;;;;;5061925;28;20222;-68
2023/12/05 11:42:10;;;;;;;13.33;12.60;;;8.30;99.90;;;;;;5051860;28;20206;-67
2023/12/05 11:44:38;;;;;;;13.50;12.50;;;8.20;99.90;;;;;;5088202;28;20683;-67
2023/12/05 11:47:26;;;;;;;13.00;12.30;;;8.20;99.90;;;;;;5049364;28;20237;-68
2023/12/05 11:49:56;;;;;;;13.03;12.33;;;8.40;99.90;;;;;;5052300;28;20306;-69
2023/12/05 11:52:27;;;;;;;12.80;12.10;;;8.20;99.90;;;;;;5036633;28;20218;-68
2023/12/05 11:54:54;;;;;;;13.30;12.60;;;8.30;99.90;;;;;;5057989;28;20222;-69
2023/12/05 11:57:23;;;;;;;12.93;12.23;;;8.40;99.90;;;;;;5064729;28;20221;-69
2023/12/05 11:59:52;;;;;;;12.83;12.13;;;8.20;99.90;;;;;;5066310;28;20299;-69
2023/12/05 12:02:39;;;;;;;13.20;12.30;;;8.20;99.90;;;;;;5062141;28;20562;-69
2023/12/05 12:05:09;;;;;;;12.73;12.03;;;8.20;99.90;;;;;;5071869;28;20281;-70
2023/12/05 12:07:52;;;;;;;12.80;12.10;;;8.10;99.90;;;;;;5054732;28;20298;-68
2023/12/05 12:10:20;;;;;;;12.67;11.97;;;8.10;99.90;;;;;;5079384;28;20192;-65
2023/12/05 12:12:47;;;;;;;12.80;12.10;;;8.10;99.90;;;;;;5080931;28;20702;-67
2023/12/05 12:15:15;;;;;;;12.70;12.00;;;8.00;99.90;;;;;;5060710;28;20628;-69
2023/12/05 12:17:44;;;;;;;12.67;11.97;;;8.00;99.90;;;;;;5073644;28;20286;-69
2023/12/05 12:20:16;;;;;;;12.70;12.00;;;7.90;99.90;;;;;;5063450;28;20205;-69
2023/12/05 12:22:48;;;;;;;13.20;12.40;;;7.90;99.90;;;;;;5040420;28;20297;-69
2023/12/05 12:25:17;;;;;;;12.80;12.00;;;7.80;99.90;;;;;;5065602;28;20186;-69
2023/12/05 12:27:44;;;;;;;13.30;12.50;;;7.80;99.90;;;;;;5057525;28;20198;-68
2023/12/05 12:30:17;;;;;;;13.43;12.60;;;7.70;99.90;;;;;;5051449;28;20265;-66
2023/12/05 12:32:56;;;;;;;12.93;12.23;;;7.70;99.90;;;;;;5075655;28;20206;-68
2023/12/05 12:35:24;;;;;;;13.10;12.40;;;7.70;99.90;;;;;;5046394;28;20233;-65
2023/12/05 12:37:53;;;;;;;12.93;12.23;;;7.70;99.90;;;;;;5036822;28;20602;-65
2023/12/05 12:40:21;;;;;;;13.20;12.47;;;7.70;99.90;;;;;;5052549;28;20195;-66
2023/12/05 12:42:54;;;;;;;13.43;12.63;;;7.70;99.90;;;;;;5056482;28;20283;-65
2023/12/05 12:45:25;;;;;;;12.73;12.03;;;7.70;99.90;;;;;;5066946;28;20532;-65
2023/12/05 12:47:52;;;;;;;12.97;12.10;;;7.60;99.90;;;;;;5082071;28;20241;-66
2023/12/05 12:50:20;;;;;;;15.83;14.57;;;7.60;99.90;;;;;;5061842;28;20210;-66